sensor_id;sensor_type;location;lat;lon;timestamp;temperature;humidity
14749;DHT22;7466;53.574;9.976;2024-01-16T00:01:00;-0.70;99.90
14749;DHT22;7466;53.574;9.976;2024-01-16T00:03:26;-0.80;99.90
14749;DHT22;7466;53.574;9.976;2024-01-16T00:05:53;-0.80;99.90
14749;DHT22;7466;53.574;9.976;2024-01-16T00:08:20;-0.80;99.90
14749;DHT22;7466;53.574;9.976;2024-01-16T00:10:47;-0.80;99.90
14749;DHT22;7466;53.574;9.976;2024-01-16T00:13:15;-0.80;99.90
14749;DHT22;7466;53.574;9.976;2024-01-16T00:15:42;-0.70;99.90
14749;DHT22;7466;53.574;9.976;2024-01-16T00:18:09;-0.70;99.90
14749;DHT22;7466;53.574;9.976;2024-01-16T00:20:36;-0.70;99.90
14749;DHT22;7466;53.574;9.976;2024-01-16T00:23:02;-0.70;99.90
14749;DHT22;7466;53.574;9.976;2024-01-16T00:25:29;-0.70;99.90
14749;DHT22;7466;53.574;9.976;2024-01-16T00:27:56;-0.70;99.90
14749;DHT22;7466;53.574;9.976;2024-01-16T00:30:30;-0.90;99.90
14749;DHT22;7466;53.574;9.976;2024-01-16T00:32:59;-1.00;99.90
14749;DHT22;7466;53.574;9.976;2024-01-16T00:35:25;-0.90;99.90
14749;DHT22;7466;53.574;9.976;2024-01-16T00:37:52;-1.00;99.90
14749;DHT22;7466;53.574;9.976;2024-01-16T00:40:19;-0.90;99.90
14749;DHT22;7466;53.574;9.976;2024-01-16T00:42:46;-1.10;99.90
14749;DHT22;7466;53.574;9.976;2024-01-16T00:45:12;-1.10;99.90
14749;DHT22;7466;53.574;9.976;2024-01-16T00:47:41;-1.20;99.90
14749;DHT22;7466;53.574;9.976;2024-01-16T00:50:08;-1.10;99.90
14749;DHT22;7466;53.574;9.976;2024-01-16T00:52:36;-1.20;99.90
14749;DHT22;7466;53.574;9.976;2024-01-16T00:55:03;-1.30;99.90
14749;DHT22;7466;53.574;9.976;2024-01-16T00:57:30;-1.20;99.90
14749;DHT22;7466;53.574;9.976;2024-01-16T00:59:57;-1.20;99.90
14749;DHT22;7466;53.574;9.976;2024-01-16T01:02:24;-1.10;99.90
14749;DHT22;7466;53.574;9.976;2024-01-16T01:04:52;-1.00;99.90
14749;DHT22;7466;53.574;9.976;2024-01-16T01:07:19;-1.00;99.90
14749;DHT22;7466;53.574;9.976;2024-01-16T01:09:51;-1.10;99.90
14749;DHT22;7466;53.574;9.976;2024-01-16T01:12:18;-1.00;99.90
14749;DHT22;7466;53.574;9.976;2024-01-16T01:14:44;-0.90;99.90
14749;DHT22;7466;53.574;9.976;2024-01-16T01:17:11;-0.90;99.90
14749;DHT22;7466;53.574;9.976;2024-01-16T01:19:41;-1.00;99.90
14749;DHT22;7466;53.574;9.976;2024-01-16T01:22:09;-1.00;99.90
14749;DHT22;7466;53.574;9.976;2024-01-16T01:24:36;-0.90;99.90
14749;DHT22;7466;53.574;9.976;2024-01-16T01:27:03;-1.00;99.90
14749;DHT22;7466;53.574;9.976;2024-01-16T01:29:31;-0.90;99.90
14749;DHT22;7466;53.574;9.976;2024-01-16T01:31:57;-0.90;99.90
14749;DHT22;7466;53.574;9.976;2024-01-16T01:34:23;-0.80;99.90
14749;DHT22;7466;53.574;9.976;2024-01-16T01:36:50;-0.80;99.90
14749;DHT22;7466;53.574;9.976;2024-01-16T01:39:19;-0.90;99.90
14749;DHT22;7466;53.574;9.976;2024-01-16T01:41:45;-0.80;99.90
14749;DHT22;7466;53.574;9.976;2024-01-16T01:44:12;-0.80;99.90
14749;DHT22;7466;53.574;9.976;2024-01-16T01:46:42;-0.90;99.90
14749;DHT22;7466;53.574;9.976;2024-01-16T01:49:12;-0.80;99.90
14749;DHT22;7466;53.574;9.976;2024-01-16T01:51:40;-0.80;99.90
14749;DHT22;7466;53.574;9.976;2024-01-16T01:54:06;-0.70;99.90
14749;DHT22;7466;53.574;9.976;2024-01-16T01:56:35;-0.70;99.90
14749;DHT22;7466;53.574;9.976;2024-01-16T01:59:03;-0.80;99.90
14749;DHT22;7466;53.574;9.976;2024-01-16T02:01:31;-0.90;99.90
14749;DHT22;7466;53.574;9.976;2024-01-16T02:03:59;-0.90;99.90
14749;DHT22;7466;53.574;9.976;2024-01-16T02:06:26;-0.90;99.90
14749;DHT22;7466;53.574;9.976;2024-01-16T02:08:53;-1.00;99.90
14749;DHT22;7466;53.574;9.976;2024-01-16T02:11:23;-1.00;99.90
14749;DHT22;7466;53.574;9.976;2024-01-16T02:13:56;-1.00;99.90
14749;DHT22;7466;53.574;9.976;2024-01-16T02:16:23;-1.10;99.90
14749;DHT22;7466;53.574;9.976;2024-01-16T02:18:51;-1.10;99.90
14749;DHT22;7466;53.574;9.976;2024-01-16T02:21:21;-1.20;99.90
14749;DHT22;7466;53.574;9.976;2024-01-16T02:23:54;-1.30;99.90
14749;DHT22;7466;53.574;9.976;2024-01-16T02:26:21;-1.30;99.90
14749;DHT22;7466;53.574;9.976;2024-01-16T02:28:48;-1.30;99.90
14749;DHT22;7466;53.574;9.976;2024-01-16T02:31:15;-1.40;99.90
14749;DHT22;7466;53.574;9.976;2024-01-16T02:33:42;-1.40;99.90
14749;DHT22;7466;53.574;9.976;2024-01-16T02:36:08;-1.40;99.90
14749;DHT22;7466;53.574;9.976;2024-01-16T02:38:37;-1.40;99.90
14749;DHT22;7466;53.574;9.976;2024-01-16T02:41:07;-1.30;99.90
14749;DHT22;7466;53.574;9.976;2024-01-16T02:43:34;-1.30;99.90
14749;DHT22;7466;53.574;9.976;2024-01-16T02:46:01;-1.30;99.90
14749;DHT22;7466;53.574;9.976;2024-01-16T02:48:28;-1.30;99.90
14749;DHT22;7466;53.574;9.976;2024-01-16T02:50:55;-1.30;99.90
14749;DHT22;7466;53.574;9.976;2024-01-16T02:53:21;-1.30;99.90
14749;DHT22;7466;53.574;9.976;2024-01-16T02:55:48;-1.30;99.90
14749;DHT22;7466;53.574;9.976;2024-01-16T02:58:18;-1.30;99.90
14749;DHT22;7466;53.574;9.976;2024-01-16T03:00:45;-1.40;99.90
14749;DHT22;7466;53.574;9.976;2024-01-16T03:03:17;-1.40;99.90
14749;DHT22;7466;53.574;9.976;2024-01-16T03:05:44;-1.40;99.90
14749;DHT22;7466;53.574;9.976;2024-01-16T03:08:13;-1.30;99.90
14749;DHT22;7466;53.574;9.976;2024-01-16T03:10:40;-1.20;99.90
14749;DHT22;7466;53.574;9.976;2024-01-16T03:13:10;-1.30;99.90
14749;DHT22;7466;53.574;9.976;2024-01-16T03:15:39;-1.30;99.90
14749;DHT22;7466;53.574;9.976;2024-01-16T03:18:06;-1.30;99.90
14749;DHT22;7466;53.574;9.976;2024-01-16T03:20:33;-1.20;99.90
14749;DHT22;7466;53.574;9.976;2024-01-16T03:23:00;-1.20;99.90
14749;DHT22;7466;53.574;9.976;2024-01-16T03:25:26;-1.20;99.90
14749;DHT22;7466;53.574;9.976;2024-01-16T03:27:53;-1.20;99.90
14749;DHT22;7466;53.574;9.976;2024-01-16T03:30:21;-1.20;99.90
14749;DHT22;7466;53.574;9.976;2024-01-16T03:32:49;-1.20;99.90
14749;DHT22;7466;53.574;9.976;2024-01-16T03:35:16;-1.10;99.90
14749;DHT22;7466;53.574;9.976;2024-01-16T03:37:43;-1.20;99.90
14749;DHT22;7466;53.574;9.976;2024-01-16T03:40:10;-1.20;99.90
14749;DHT22;7466;53.574;9.976;2024-01-16T03:42:38;-1.30;99.90
14749;DHT22;7466;53.574;9.976;2024-01-16T03:45:06;-1.30;99.90
14749;DHT22;7466;53.574;9.976;2024-01-16T03:47:36;-1.30;99.90
14749;DHT22;7466;53.574;9.976;2024-01-16T03:50:05;-1.30;99.90
14749;DHT22;7466;53.574;9.976;2024-01-16T03:52:32;-1.20;99.90
14749;DHT22;7466;53.574;9.976;2024-01-16T03:54:58;-1.20;99.90
14749;DHT22;7466;53.574;9.976;2024-01-16T03:57:25;-1.20;99.90
14749;DHT22;7466;53.574;9.976;2024-01-16T03:59:52;-1.20;99.90
14749;DHT22;7466;53.574;9.976;2024-01-16T04:02:18;-1.20;99.90
14749;DHT22;7466;53.574;9.976;2024-01-16T04:04:45;-1.20;99.90
14749;DHT22;7466;53.574;9.976;2024-01-16T04:07:13;-1.30;99.90
14749;DHT22;7466;53.574;9.976;2024-01-16T04:09:41;-1.30;99.90
14749;DHT22;7466;53.574;9.976;2024-01-16T04:12:08;-1.30;99.90
14749;DHT22;7466;53.574;9.976;2024-01-16T04:14:35;-1.30;99.90
14749;DHT22;7466;53.574;9.976;2024-01-16T04:17:02;-1.40;99.90
14749;DHT22;7466;53.574;9.976;2024-01-16T04:19:29;-1.30;99.90
14749;DHT22;7466;53.574;9.976;2024-01-16T04:21:59;-1.40;99.90
14749;DHT22;7466;53.574;9.976;2024-01-16T04:24:27;-1.30;99.90
14749;DHT22;7466;53.574;9.976;2024-01-16T04:26:54;-1.30;99.90
14749;DHT22;7466;53.574;9.976;2024-01-16T04:29:21;-1.20;99.90
14749;DHT22;7466;53.574;9.976;2024-01-16T04:31:48;-1.20;99.90
14749;DHT22;7466;53.574;9.976;2024-01-16T04:34:14;-1.20;99.90
14749;DHT22;7466;53.574;9.976;2024-01-16T04:36:41;-1.20;99.90
14749;DHT22;7466;53.574;9.976;2024-01-16T04:39:09;-1.10;99.90
14749;DHT22;7466;53.574;9.976;2024-01-16T04:41:37;-1.10;99.90
14749;DHT22;7466;53.574;9.976;2024-01-16T04:44:04;-1.20;99.90
14749;DHT22;7466;53.574;9.976;2024-01-16T04:46:30;-1.20;99.90
14749;DHT22;7466;53.574;9.976;2024-01-16T04:48:57;-1.20;99.90
14749;DHT22;7466;53.574;9.976;2024-01-16T04:51:24;-1.20;99.90
14749;DHT22;7466;53.574;9.976;2024-01-16T04:53:50;-1.30;99.90
14749;DHT22;7466;53.574;9.976;2024-01-16T04:56:18;-1.30;99.90
14749;DHT22;7466;53.574;9.976;2024-01-16T04:58:46;-1.30;99.90
14749;DHT22;7466;53.574;9.976;2024-01-16T05:01:13;-1.40;99.90
14749;DHT22;7466;53.574;9.976;2024-01-16T05:03:40;-1.40;99.90
14749;DHT22;7466;53.574;9.976;2024-01-16T05:06:12;-1.40;99.90
14749;DHT22;7466;53.574;9.976;2024-01-16T05:08:39;-1.40;99.90
14749;DHT22;7466;53.574;9.976;2024-01-16T05:11:06;-1.40;99.90
14749;DHT22;7466;53.574;9.976;2024-01-16T05:13:33;-1.30;99.90
14749;DHT22;7466;53.574;9.976;2024-01-16T05:16:01;-1.30;99.90
14749;DHT22;7466;53.574;9.976;2024-01-16T05:18:28;-1.30;99.90
14749;DHT22;7466;53.574;9.976;2024-01-16T05:20:55;-1.20;99.90
14749;DHT22;7466;53.574;9.976;2024-01-16T05:23:22;-1.20;99.90
14749;DHT22;7466;53.574;9.976;2024-01-16T05:25:49;-1.10;99.90
14749;DHT22;7466;53.574;9.976;2024-01-16T05:28:16;-1.10;99.90
14749;DHT22;7466;53.574;9.976;2024-01-16T05:30:43;-1.10;99.90
14749;DHT22;7466;53.574;9.976;2024-01-16T05:33:13;-1.10;99.90
14749;DHT22;7466;53.574;9.976;2024-01-16T05:35:39;-1.00;99.90
14749;DHT22;7466;53.574;9.976;2024-01-16T05:38:06;-1.00;99.90
14749;DHT22;7466;53.574;9.976;2024-01-16T05:40:39;-1.00;99.90
14749;DHT22;7466;53.574;9.976;2024-01-16T05:43:07;-1.00;99.90
14749;DHT22;7466;53.574;9.976;2024-01-16T05:45:34;-1.00;99.90
14749;DHT22;7466;53.574;9.976;2024-01-16T05:48:01;-1.00;99.90
14749;DHT22;7466;53.574;9.976;2024-01-16T05:50:30;-1.00;99.90
14749;DHT22;7466;53.574;9.976;2024-01-16T05:52:57;-1.00;99.90
14749;DHT22;7466;53.574;9.976;2024-01-16T05:55:24;-0.90;99.90
14749;DHT22;7466;53.574;9.976;2024-01-16T05:57:50;-0.90;99.90
14749;DHT22;7466;53.574;9.976;2024-01-16T06:00:18;-0.90;99.90
14749;DHT22;7466;53.574;9.976;2024-01-16T06:02:48;-0.90;99.90
14749;DHT22;7466;53.574;9.976;2024-01-16T06:05:14;-0.80;99.90
14749;DHT22;7466;53.574;9.976;2024-01-16T06:07:43;-0.80;99.90
14749;DHT22;7466;53.574;9.976;2024-01-16T06:10:11;-0.80;99.90
14749;DHT22;7466;53.574;9.976;2024-01-16T06:12:38;-0.80;99.90
14749;DHT22;7466;53.574;9.976;2024-01-16T06:15:06;-0.80;99.90
14749;DHT22;7466;53.574;9.976;2024-01-16T06:17:33;-0.80;99.90
14749;DHT22;7466;53.574;9.976;2024-01-16T06:20:00;-0.80;99.90
14749;DHT22;7466;53.574;9.976;2024-01-16T06:22:29;-0.70;99.90
14749;DHT22;7466;53.574;9.976;2024-01-16T06:25:00;-0.70;99.90
14749;DHT22;7466;53.574;9.976;2024-01-16T06:27:27;-0.70;99.90
14749;DHT22;7466;53.574;9.976;2024-01-16T06:29:54;-0.70;99.90
14749;DHT22;7466;53.574;9.976;2024-01-16T06:32:21;-0.70;99.90
14749;DHT22;7466;53.574;9.976;2024-01-16T06:34:47;-0.60;99.90
14749;DHT22;7466;53.574;9.976;2024-01-16T06:37:14;-0.60;99.90
14749;DHT22;7466;53.574;9.976;2024-01-16T06:39:41;-0.60;99.90
14749;DHT22;7466;53.574;9.976;2024-01-16T06:42:09;-0.60;99.90
14749;DHT22;7466;53.574;9.976;2024-01-16T06:44:36;-0.60;99.90
14749;DHT22;7466;53.574;9.976;2024-01-16T06:47:04;-0.60;99.90
14749;DHT22;7466;53.574;9.976;2024-01-16T06:49:31;-0.60;99.90
14749;DHT22;7466;53.574;9.976;2024-01-16T06:51:57;-0.50;99.90
14749;DHT22;7466;53.574;9.976;2024-01-16T06:54:24;-0.50;99.90
14749;DHT22;7466;53.574;9.976;2024-01-16T06:56:52;-0.50;99.90
14749;DHT22;7466;53.574;9.976;2024-01-16T06:59:20;-0.50;99.90
14749;DHT22;7466;53.574;9.976;2024-01-16T07:01:47;-0.50;99.90
14749;DHT22;7466;53.574;9.976;2024-01-16T07:04:15;-0.50;99.90
14749;DHT22;7466;53.574;9.976;2024-01-16T07:06:41;-0.50;99.90
14749;DHT22;7466;53.574;9.976;2024-01-16T07:09:08;-0.50;99.90
14749;DHT22;7466;53.574;9.976;2024-01-16T07:11:54;-0.50;99.90
14749;DHT22;7466;53.574;9.976;2024-01-16T07:14:22;-0.60;99.90
14749;DHT22;7466;53.574;9.976;2024-01-16T07:16:49;-0.60;99.90
14749;DHT22;7466;53.574;9.976;2024-01-16T07:19:18;-0.50;99.90
14749;DHT22;7466;53.574;9.976;2024-01-16T07:21:45;-0.60;99.90
14749;DHT22;7466;53.574;9.976;2024-01-16T07:24:12;-0.50;99.90
14749;DHT22;7466;53.574;9.976;2024-01-16T07:26:39;-0.50;99.90
14749;DHT22;7466;53.574;9.976;2024-01-16T07:29:08;-0.50;99.90
14749;DHT22;7466;53.574;9.976;2024-01-16T07:31:37;-0.60;99.90
14749;DHT22;7466;53.574;9.976;2024-01-16T07:34:04;-0.50;99.90
14749;DHT22;7466;53.574;9.976;2024-01-16T07:36:31;-0.60;99.90
14749;DHT22;7466;53.574;9.976;2024-01-16T07:39:04;-0.50;99.90
14749;DHT22;7466;53.574;9.976;2024-01-16T07:41:32;-0.50;99.90
14749;DHT22;7466;53.574;9.976;2024-01-16T07:44:04;-0.50;99.90
14749;DHT22;7466;53.574;9.976;2024-01-16T07:46:42;-0.60;99.90
14749;DHT22;7466;53.574;9.976;2024-01-16T07:49:09;-0.50;99.90
14749;DHT22;7466;53.574;9.976;2024-01-16T07:51:36;-0.50;99.90
14749;DHT22;7466;53.574;9.976;2024-01-16T07:54:07;-0.50;99.90
14749;DHT22;7466;53.574;9.976;2024-01-16T07:56:34;-0.60;99.90
14749;DHT22;7466;53.574;9.976;2024-01-16T07:59:02;-0.40;99.90
14749;DHT22;7466;53.574;9.976;2024-01-16T08:01:28;-0.50;99.90
14749;DHT22;7466;53.574;9.976;2024-01-16T08:03:57;-0.50;99.90
14749;DHT22;7466;53.574;9.976;2024-01-16T08:06:24;-0.50;99.90
14749;DHT22;7466;53.574;9.976;2024-01-16T08:08:51;-0.50;99.90
14749;DHT22;7466;53.574;9.976;2024-01-16T08:11:22;-0.50;99.90
14749;DHT22;7466;53.574;9.976;2024-01-16T08:13:50;-0.50;99.90
14749;DHT22;7466;53.574;9.976;2024-01-16T08:16:19;-0.40;99.90
14749;DHT22;7466;53.574;9.976;2024-01-16T08:18:47;-0.40;99.90
14749;DHT22;7466;53.574;9.976;2024-01-16T08:21:16;-0.40;99.90
14749;DHT22;7466;53.574;9.976;2024-01-16T08:23:44;-0.40;99.90
14749;DHT22;7466;53.574;9.976;2024-01-16T08:26:11;-0.40;99.90
14749;DHT22;7466;53.574;9.976;2024-01-16T08:28:38;-0.30;99.90
14749;DHT22;7466;53.574;9.976;2024-01-16T08:31:05;-0.30;99.90
14749;DHT22;7466;53.574;9.976;2024-01-16T08:33:32;-0.30;99.90
14749;DHT22;7466;53.574;9.976;2024-01-16T08:35:59;-0.20;99.90
14749;DHT22;7466;53.574;9.976;2024-01-16T08:38:27;-0.20;99.90
14749;DHT22;7466;53.574;9.976;2024-01-16T08:40:54;-0.20;99.90
14749;DHT22;7466;53.574;9.976;2024-01-16T08:43:23;-0.30;99.90
14749;DHT22;7466;53.574;9.976;2024-01-16T08:45:50;-0.30;99.90
14749;DHT22;7466;53.574;9.976;2024-01-16T08:48:17;-0.30;99.90
14749;DHT22;7466;53.574;9.976;2024-01-16T08:50:44;-0.30;99.90
14749;DHT22;7466;53.574;9.976;2024-01-16T08:53:11;-0.30;99.90
14749;DHT22;7466;53.574;9.976;2024-01-16T08:55:39;-0.30;99.90
14749;DHT22;7466;53.574;9.976;2024-01-16T08:58:06;-0.30;99.90
14749;DHT22;7466;53.574;9.976;2024-01-16T09:00:33;-0.30;99.90
14749;DHT22;7466;53.574;9.976;2024-01-16T09:03:00;-0.30;99.90
14749;DHT22;7466;53.574;9.976;2024-01-16T09:05:27;-0.20;99.90
14749;DHT22;7466;53.574;9.976;2024-01-16T09:07:54;-0.20;99.90
14749;DHT22;7466;53.574;9.976;2024-01-16T09:10:22;-0.20;99.90
14749;DHT22;7466;53.574;9.976;2024-01-16T09:12:50;-0.20;99.90
14749;DHT22;7466;53.574;9.976;2024-01-16T09:15:17;-0.20;99.90
14749;DHT22;7466;53.574;9.976;2024-01-16T09:17:43;-0.10;99.90
14749;DHT22;7466;53.574;9.976;2024-01-16T09:20:19;-0.20;99.90
14749;DHT22;7466;53.574;9.976;2024-01-16T09:22:46;-0.10;99.90
14749;DHT22;7466;53.574;9.976;2024-01-16T09:25:13;-0.10;99.90
14749;DHT22;7466;53.574;9.976;2024-01-16T09:27:40;-0.10;99.90
14749;DHT22;7466;53.574;9.976;2024-01-16T09:30:09;0.00;99.90
14749;DHT22;7466;53.574;9.976;2024-01-16T09:32:37;0.00;99.90
14749;DHT22;7466;53.574;9.976;2024-01-16T09:35:05;0.00;99.90
14749;DHT22;7466;53.574;9.976;2024-01-16T09:37:34;0.10;99.90
14749;DHT22;7466;53.574;9.976;2024-01-16T09:40:01;0.00;99.90
14749;DHT22;7466;53.574;9.976;2024-01-16T09:42:28;0.10;99.90
14749;DHT22;7466;53.574;9.976;2024-01-16T09:45:04;0.00;99.90
14749;DHT22;7466;53.574;9.976;2024-01-16T09:47:34;0.00;99.90
14749;DHT22;7466;53.574;9.976;2024-01-16T09:50:02;0.00;99.90
14749;DHT22;7466;53.574;9.976;2024-01-16T09:52:29;0.00;99.90
14749;DHT22;7466;53.574;9.976;2024-01-16T09:54:56;0.00;99.90
14749;DHT22;7466;53.574;9.976;2024-01-16T09:57:25;-0.10;99.90
14749;DHT22;7466;53.574;9.976;2024-01-16T09:59:52;-0.10;99.90
14749;DHT22;7466;53.574;9.976;2024-01-16T10:02:20;0.00;99.90
14749;DHT22;7466;53.574;9.976;2024-01-16T10:04:49;0.10;99.90
14749;DHT22;7466;53.574;9.976;2024-01-16T10:07:17;0.00;99.90
14749;DHT22;7466;53.574;9.976;2024-01-16T10:09:46;0.00;99.90
14749;DHT22;7466;53.574;9.976;2024-01-16T10:12:13;0.10;99.90
14749;DHT22;7466;53.574;9.976;2024-01-16T10:14:41;0.20;99.90
14749;DHT22;7466;53.574;9.976;2024-01-16T10:17:11;0.20;99.90
14749;DHT22;7466;53.574;9.976;2024-01-16T10:19:50;0.30;99.90
14749;DHT22;7466;53.574;9.976;2024-01-16T10:22:20;0.30;99.90
14749;DHT22;7466;53.574;9.976;2024-01-16T10:24:50;0.30;99.90
14749;DHT22;7466;53.574;9.976;2024-01-16T10:27:17;0.30;99.90
14749;DHT22;7466;53.574;9.976;2024-01-16T10:29:54;0.40;99.90
14749;DHT22;7466;53.574;9.976;2024-01-16T10:32:28;0.40;99.90
14749;DHT22;7466;53.574;9.976;2024-01-16T10:35:04;0.40;99.90
14749;DHT22;7466;53.574;9.976;2024-01-16T10:37:32;0.40;99.90
14749;DHT22;7466;53.574;9.976;2024-01-16T10:40:07;0.40;99.90
14749;DHT22;7466;53.574;9.976;2024-01-16T10:42:34;0.50;99.90
14749;DHT22;7466;53.574;9.976;2024-01-16T10:45:01;0.50;99.90
14749;DHT22;7466;53.574;9.976;2024-01-16T10:47:29;0.60;99.90
14749;DHT22;7466;53.574;9.976;2024-01-16T10:49:55;0.70;99.90
14749;DHT22;7466;53.574;9.976;2024-01-16T10:52:27;0.70;99.90
14749;DHT22;7466;53.574;9.976;2024-01-16T10:55:03;0.60;99.90
14749;DHT22;7466;53.574;9.976;2024-01-16T10:57:33;0.70;99.90
14749;DHT22;7466;53.574;9.976;2024-01-16T11:00:03;0.60;99.90
14749;DHT22;7466;53.574;9.976;2024-01-16T11:02:38;0.70;99.90
14749;DHT22;7466;53.574;9.976;2024-01-16T11:05:08;0.70;99.90
14749;DHT22;7466;53.574;9.976;2024-01-16T11:07:38;0.70;99.90
14749;DHT22;7466;53.574;9.976;2024-01-16T11:10:07;0.70;99.90
14749;DHT22;7466;53.574;9.976;2024-01-16T11:12:35;0.70;99.90
14749;DHT22;7466;53.574;9.976;2024-01-16T11:15:06;0.70;99.90
14749;DHT22;7466;53.574;9.976;2024-01-16T11:17:34;0.80;99.90
14749;DHT22;7466;53.574;9.976;2024-01-16T11:20:02;0.80;99.90
14749;DHT22;7466;53.574;9.976;2024-01-16T11:22:31;0.80;99.90
14749;DHT22;7466;53.574;9.976;2024-01-16T11:25:10;0.90;99.90
14749;DHT22;7466;53.574;9.976;2024-01-16T11:27:38;1.00;99.90
14749;DHT22;7466;53.574;9.976;2024-01-16T11:30:06;0.90;99.90
14749;DHT22;7466;53.574;9.976;2024-01-16T11:32:35;1.10;99.90
14749;DHT22;7466;53.574;9.976;2024-01-16T11:35:03;1.00;99.90
14749;DHT22;7466;53.574;9.976;2024-01-16T11:37:30;0.90;99.90
14749;DHT22;7466;53.574;9.976;2024-01-16T11:40:33;1.00;99.90
14749;DHT22;7466;53.574;9.976;2024-01-16T11:43:35;1.00;99.90
14749;DHT22;7466;53.574;9.976;2024-01-16T11:46:03;1.10;99.90
14749;DHT22;7466;53.574;9.976;2024-01-16T11:48:30;1.20;99.90
14749;DHT22;7466;53.574;9.976;2024-01-16T11:50:57;1.10;99.90
14749;DHT22;7466;53.574;9.976;2024-01-16T11:53:34;1.00;99.90
14749;DHT22;7466;53.574;9.976;2024-01-16T11:56:52;0.90;99.90
14749;DHT22;7466;53.574;9.976;2024-01-16T12:02:21;1.00;99.90
14749;DHT22;7466;53.574;9.976;2024-01-16T12:04:53;1.00;99.90
14749;DHT22;7466;53.574;9.976;2024-01-16T12:07:22;1.00;99.90
14749;DHT22;7466;53.574;9.976;2024-01-16T12:09:49;1.00;99.90
14749;DHT22;7466;53.574;9.976;2024-01-16T12:12:17;1.00;99.90
14749;DHT22;7466;53.574;9.976;2024-01-16T12:14:51;1.10;99.90
14749;DHT22;7466;53.574;9.976;2024-01-16T12:17:19;1.20;99.90
14749;DHT22;7466;53.574;9.976;2024-01-16T12:19:46;1.20;99.90
14749;DHT22;7466;53.574;9.976;2024-01-16T12:22:15;1.20;99.90
14749;DHT22;7466;53.574;9.976;2024-01-16T12:24:43;1.10;99.90
14749;DHT22;7466;53.574;9.976;2024-01-16T12:27:11;1.10;99.90
14749;DHT22;7466;53.574;9.976;2024-01-16T12:29:39;1.10;99.90
14749;DHT22;7466;53.574;9.976;2024-01-16T12:32:08;1.20;99.90
14749;DHT22;7466;53.574;9.976;2024-01-16T12:34:35;1.30;99.90
14749;DHT22;7466;53.574;9.976;2024-01-16T12:37:10;1.20;99.90
14749;DHT22;7466;53.574;9.976;2024-01-16T12:39:36;1.10;99.90
14749;DHT22;7466;53.574;9.976;2024-01-16T12:42:04;1.20;99.90
14749;DHT22;7466;53.574;9.976;2024-01-16T12:44:31;1.20;99.90
14749;DHT22;7466;53.574;9.976;2024-01-16T12:46:59;1.20;99.90
14749;DHT22;7466;53.574;9.976;2024-01-16T12:49:27;1.10;99.90
14749;DHT22;7466;53.574;9.976;2024-01-16T12:52:15;1.10;99.90
14749;DHT22;7466;53.574;9.976;2024-01-16T12:54:43;1.00;99.90
14749;DHT22;7466;53.574;9.976;2024-01-16T12:57:10;1.00;99.90
14749;DHT22;7466;53.574;9.976;2024-01-16T12:59:42;1.00;99.90
14749;DHT22;7466;53.574;9.976;2024-01-16T13:02:19;1.10;99.90
14749;DHT22;7466;53.574;9.976;2024-01-16T13:04:47;1.20;99.90
14749;DHT22;7466;53.574;9.976;2024-01-16T13:07:17;1.20;99.90
14749;DHT22;7466;53.574;9.976;2024-01-16T13:09:44;1.20;99.90
14749;DHT22;7466;53.574;9.976;2024-01-16T13:12:19;1.20;99.90
14749;DHT22;7466;53.574;9.976;2024-01-16T13:14:47;1.20;99.90
14749;DHT22;7466;53.574;9.976;2024-01-16T13:17:15;1.20;99.90
14749;DHT22;7466;53.574;9.976;2024-01-16T13:19:41;1.20;99.90
14749;DHT22;7466;53.574;9.976;2024-01-16T13:22:08;1.20;99.90
14749;DHT22;7466;53.574;9.976;2024-01-16T13:24:35;1.20;99.90
14749;DHT22;7466;53.574;9.976;2024-01-16T13:27:02;1.10;99.90
14749;DHT22;7466;53.574;9.976;2024-01-16T13:29:29;1.10;99.90
14749;DHT22;7466;53.574;9.976;2024-01-16T13:32:01;1.10;99.90
14749;DHT22;7466;53.574;9.976;2024-01-16T13:34:33;1.10;99.90
14749;DHT22;7466;53.574;9.976;2024-01-16T13:37:01;1.00;99.90
14749;DHT22;7466;53.574;9.976;2024-01-16T13:39:30;1.00;99.90
14749;DHT22;7466;53.574;9.976;2024-01-16T13:42:00;1.00;99.90
14749;DHT22;7466;53.574;9.976;2024-01-16T13:44:34;1.00;99.90
14749;DHT22;7466;53.574;9.976;2024-01-16T13:47:04;1.00;99.90
14749;DHT22;7466;53.574;9.976;2024-01-16T13:49:36;1.00;99.90
14749;DHT22;7466;53.574;9.976;2024-01-16T13:52:03;1.00;99.90
14749;DHT22;7466;53.574;9.976;2024-01-16T13:54:29;0.90;99.90
14749;DHT22;7466;53.574;9.976;2024-01-16T13:56:56;0.90;99.90
14749;DHT22;7466;53.574;9.976;2024-01-16T13:59:23;0.90;99.90
14749;DHT22;7466;53.574;9.976;2024-01-16T14:01:50;0.90;99.90
14749;DHT22;7466;53.574;9.976;2024-01-16T14:04:16;0.90;99.90
14749;DHT22;7466;53.574;9.976;2024-01-16T14:06:47;0.90;99.90
14749;DHT22;7466;53.574;9.976;2024-01-16T14:09:14;0.90;99.90
14749;DHT22;7466;53.574;9.976;2024-01-16T14:11:41;0.90;99.90
14749;DHT22;7466;53.574;9.976;2024-01-16T14:14:07;0.90;99.90
14749;DHT22;7466;53.574;9.976;2024-01-16T14:16:36;0.80;99.90
14749;DHT22;7466;53.574;9.976;2024-01-16T14:19:03;0.80;99.90
14749;DHT22;7466;53.574;9.976;2024-01-16T14:21:32;0.90;99.90
14749;DHT22;7466;53.574;9.976;2024-01-16T14:24:00;0.90;99.90
14749;DHT22;7466;53.574;9.976;2024-01-16T14:26:27;0.90;99.90
14749;DHT22;7466;53.574;9.976;2024-01-16T14:28:54;0.90;99.90
14749;DHT22;7466;53.574;9.976;2024-01-16T14:31:21;0.90;99.90
14749;DHT22;7466;53.574;9.976;2024-01-16T14:33:47;0.90;99.90
14749;DHT22;7466;53.574;9.976;2024-01-16T14:36:14;0.90;99.90
14749;DHT22;7466;53.574;9.976;2024-01-16T14:38:41;0.90;99.90
14749;DHT22;7466;53.574;9.976;2024-01-16T14:41:10;0.90;99.90
14749;DHT22;7466;53.574;9.976;2024-01-16T14:43:37;0.90;99.90
14749;DHT22;7466;53.574;9.976;2024-01-16T14:46:04;0.80;99.90
14749;DHT22;7466;53.574;9.976;2024-01-16T14:48:35;0.80;99.90
14749;DHT22;7466;53.574;9.976;2024-01-16T14:51:03;0.80;99.90
14749;DHT22;7466;53.574;9.976;2024-01-16T14:53:35;0.80;99.90
14749;DHT22;7466;53.574;9.976;2024-01-16T14:56:02;0.80;99.90
14749;DHT22;7466;53.574;9.976;2024-01-16T14:58:32;0.80;99.90
14749;DHT22;7466;53.574;9.976;2024-01-16T15:00:58;0.80;99.90
14749;DHT22;7466;53.574;9.976;2024-01-16T15:03:29;0.80;99.90
14749;DHT22;7466;53.574;9.976;2024-01-16T15:06:05;0.80;99.90
14749;DHT22;7466;53.574;9.976;2024-01-16T15:08:31;0.80;99.90
14749;DHT22;7466;53.574;9.976;2024-01-16T15:10:58;0.80;99.90
14749;DHT22;7466;53.574;9.976;2024-01-16T15:13:25;0.80;99.90
14749;DHT22;7466;53.574;9.976;2024-01-16T15:15:53;0.80;99.90
14749;DHT22;7466;53.574;9.976;2024-01-16T15:18:21;0.80;99.90
14749;DHT22;7466;53.574;9.976;2024-01-16T15:20:48;0.80;99.90
14749;DHT22;7466;53.574;9.976;2024-01-16T15:23:15;0.80;99.90
14749;DHT22;7466;53.574;9.976;2024-01-16T15:25:42;0.80;99.90
14749;DHT22;7466;53.574;9.976;2024-01-16T15:28:09;0.80;99.90
14749;DHT22;7466;53.574;9.976;2024-01-16T15:30:35;0.80;99.90
14749;DHT22;7466;53.574;9.976;2024-01-16T15:33:04;0.80;99.90
14749;DHT22;7466;53.574;9.976;2024-01-16T15:35:31;0.80;99.90
14749;DHT22;7466;53.574;9.976;2024-01-16T15:37:58;0.80;99.90
14749;DHT22;7466;53.574;9.976;2024-01-16T15:40:24;0.80;99.90
14749;DHT22;7466;53.574;9.976;2024-01-16T15:42:51;0.90;99.90
14749;DHT22;7466;53.574;9.976;2024-01-16T15:45:19;0.90;99.90
14749;DHT22;7466;53.574;9.976;2024-01-16T15:47:46;0.90;99.90
14749;DHT22;7466;53.574;9.976;2024-01-16T15:50:15;0.90;99.90
14749;DHT22;7466;53.574;9.976;2024-01-16T15:52:41;0.90;99.90
14749;DHT22;7466;53.574;9.976;2024-01-16T15:55:08;0.90;99.90
14749;DHT22;7466;53.574;9.976;2024-01-16T15:57:36;0.90;99.90
14749;DHT22;7466;53.574;9.976;2024-01-16T16:00:05;0.90;99.90
14749;DHT22;7466;53.574;9.976;2024-01-16T16:02:34;0.90;99.90